Time,TemperatureF,DewpointF,PressureIn,WindDirection,WindDirectionDegrees,WindSpeedMPH,WindSpeedGustMPH,Humidity,HourlyPrecipIn,Conditions,Clouds,dailyrainin,SoftwareType,DateUTC
2013-10-30 00:05:00,82.3,77.0,29.86,East,92,9.0,10.0,84,0.00,,,0.00,weatherlink.com 1.10,2013-10-30 04:05:00,
2013-10-30 00:20:00,82.4,77.0,29.86,ENE,71,4.0,11.0,83,0.00,,,0.00,weatherlink.com 1.10,2013-10-30 04:20:00,
2013-10-30 00:35:00,82.5,78.0,29.86,ESE,111,4.0,10.0,85,0.00,,,0.00,weatherlink.com 1.10,2013-10-30 04:35:00,
2013-10-30 00:50:00,81.6,77.0,29.85,East,94,2.0,10.0,86,0.00,,,0.00,weatherlink.com 1.10,2013-10-30 04:50:00,
2013-10-30 01:05:00,81.6,77.0,29.84,East,99,9.0,10.0,86,0.00,,,0.00,weatherlink.com 1.10,2013-10-30 05:05:00,
2013-10-30 01:20:00,81.7,77.0,29.83,East,101,9.0,10.0,86,0.00,,,0.00,weatherlink.com 1.10,2013-10-30 05:20:00,
2013-10-30 01:35:00,81.6,77.0,29.83,East,86,5.0,10.0,85,0.00,,,0.00,weatherlink.com 1.10,2013-10-30 05:35:00,
2013-10-30 01:50:00,81.8,77.0,29.82,ESE,111,2.0,11.0,85,0.00,,,0.00,weatherlink.com 1.10,2013-10-30 05:50:00,
2013-10-30 02:05:00,81.8,77.0,29.81,ESE,105,3.0,10.0,85,0.00,,,0.00,weatherlink.com 1.10,2013-10-30 06:05:00,
2013-10-30 02:20:00,81.8,77.0,29.81,SE,126,3.0,11.0,86,0.00,,,0.00,weatherlink.com 1.10,2013-10-30 06:20:00,
2013-10-30 02:35:00,81.3,77.0,29.80,East,90,3.0,9.0,85,0.00,,,0.00,weatherlink.com 1.10,2013-10-30 06:35:00,
2013-10-30 02:50:00,81.4,77.0,29.80,East,91,5.0,8.0,86,0.00,,,0.00,weatherlink.com 1.10,2013-10-30 06:50:00,
2013-10-30 03:05:00,81.4,77.0,29.80,East,80,2.0,11.0,86,0.00,,,0.00,weatherlink.com 1.10,2013-10-30 07:05:00,
2013-10-30 03:20:00,81.6,77.0,29.79,ESE,111,3.0,11.0,85,0.00,,,0.00,weatherlink.com 1.10,2013-10-30 07:20:00,
2013-10-30 03:36:00,81.7,77.0,29.79,East,97,5.0,9.0,85,0.00,,,0.00,weatherlink.com 1.10,2013-10-30 07:36:00,
2013-10-30 03:51:00,81.6,77.0,29.79,East,94,7.0,10.0,85,0.00,,,0.00,weatherlink.com 1.10,2013-10-30 07:51:00,
2013-10-30 04:06:00,81.5,76.0,29.79,ENE,76,3.0,8.0,84,0.00,,,0.00,weatherlink.com 1.10,2013-10-30 08:06:00,
2013-10-30 04:21:00,81.5,77.0,29.79,ESE,110,5.0,10.0,85,0.00,,,0.00,weatherlink.com 1.10,2013-10-30 08:21:00,
2013-10-30 04:36:00,81.1,76.0,29.79,East,90,1.0,7.0,85,0.00,,,0.00,weatherlink.com 1.10,2013-10-30 08:36:00,
2013-10-30 04:51:00,80.9,76.0,29.79,ENE,76,2.0,8.0,85,0.00,,,0.00,weatherlink.com 1.10,2013-10-30 08:51:00,
2013-10-30 05:06:00,80.8,76.0,29.79,ESE,109,2.0,7.0,86,0.00,,,0.00,weatherlink.com 1.10,2013-10-30 09:06:00,
2013-10-30 05:21:00,80.8,76.0,29.79,ESE,103,3.0,7.0,86,0.00,,,0.00,weatherlink.com 1.10,2013-10-30 09:21:00,
2013-10-30 05:36:00,80.9,76.0,29.80,East,101,3.0,7.0,86,0.00,,,0.00,weatherlink.com 1.10,2013-10-30 09:36:00,
2013-10-30 05:51:00,80.8,76.0,29.80,ESE,111,5.0,8.0,85,0.00,,,0.00,weatherlink.com 1.10,2013-10-30 09:51:00,
2013-10-30 06:06:00,81.0,76.0,29.80,East,85,5.0,7.0,84,0.00,,,0.00,weatherlink.com 1.10,2013-10-30 10:06:00,
2013-10-30 06:21:00,81.0,77.0,29.81,ENE,68,3.0,11.0,86,0.03,,,0.03,weatherlink.com 1.10,2013-10-30 10:21:00,
2013-10-30 06:36:00,79.4,76.0,29.81,East,91,2.0,4.0,89,0.03,,,0.03,weatherlink.com 1.10,2013-10-30 10:36:00,
2013-10-30 06:51:00,78.9,76.0,29.82,East,100,0.0,4.0,91,0.03,,,0.03,weatherlink.com 1.10,2013-10-30 10:51:00,
2013-10-30 07:06:00,78.9,77.0,29.82,East,92,2.0,5.0,92,0.03,,,0.03,weatherlink.com 1.10,2013-10-30 11:06:00,
2013-10-30 07:21:00,78.4,76.0,29.83,ESE,117,2.0,7.0,91,0.00,,,0.03,weatherlink.com 1.10,2013-10-30 11:21:00,
2013-10-30 07:36:00,78.4,75.0,29.83,ESE,105,1.0,3.0,90,0.00,,,0.03,weatherlink.com 1.10,2013-10-30 11:36:00,
2013-10-30 07:51:00,78.7,76.0,29.84,East,94,2.0,4.0,90,0.00,,,0.03,weatherlink.com 1.10,2013-10-30 11:51:00,
2013-10-30 08:06:00,80.0,77.0,29.85,ESE,118,3.0,9.0,89,0.00,,,0.03,weatherlink.com 1.10,2013-10-30 12:06:00,
2013-10-30 08:21:00,81.6,76.0,29.85,SE,126,3.0,10.0,84,0.00,,,0.03,weatherlink.com 1.10,2013-10-30 12:21:00,
2013-10-30 08:36:00,83.3,77.0,29.86,ENE,63,4.0,9.0,82,0.00,,,0.03,weatherlink.com 1.10,2013-10-30 12:36:00,
2013-10-30 08:51:00,85.0,78.0,29.86,SE,124,8.0,8.0,80,0.00,,,0.03,weatherlink.com 1.10,2013-10-30 12:51:00,
2013-10-30 09:06:00,86.3,79.0,29.87,ENE,57,1.0,9.0,79,0.00,,,0.03,weatherlink.com 1.10,2013-10-30 13:06:00,
2013-10-30 09:21:00,86.5,78.0,29.88,NNE,14,5.0,13.0,76,0.00,,,0.03,weatherlink.com 1.10,2013-10-30 13:21:00,
2013-10-30 09:36:00,88.1,79.0,29.87,East,82,6.0,14.0,75,0.00,,,0.03,weatherlink.com 1.10,2013-10-30 13:36:00,
2013-10-30 09:51:00,88.8,79.0,29.87,NE,34,4.0,11.0,72,0.00,,,0.03,weatherlink.com 1.10,2013-10-30 13:51:00,
2013-10-30 10:06:00,88.6,79.0,29.89,East,100,7.0,13.0,72,0.00,,,0.03,weatherlink.com 1.10,2013-10-30 14:06:00,
2013-10-30 10:21:00,85.4,75.0,29.88,SE,134,4.0,11.0,72,0.00,,,0.03,weatherlink.com 1.10,2013-10-30 14:21:00,
2013-10-30 10:36:00,87.4,77.0,29.88,East,80,2.0,9.0,72,0.00,,,0.03,weatherlink.com 1.10,2013-10-30 14:36:00,
2013-10-30 10:51:00,87.5,77.0,29.87,ENE,59,9.0,13.0,72,0.00,,,0.03,weatherlink.com 1.10,2013-10-30 14:51:00,
2013-10-30 11:06:00,86.8,78.0,29.88,ENE,69,9.0,11.0,76,0.00,,,0.03,weatherlink.com 1.10,2013-10-30 15:06:00,
2013-10-30 11:21:00,89.6,79.0,29.87,ENE,66,4.0,11.0,72,0.00,,,0.03,weatherlink.com 1.10,2013-10-30 15:21:00,
2013-10-30 11:36:00,88.3,78.0,29.87,East,95,11.0,16.0,72,0.00,,,0.03,weatherlink.com 1.10,2013-10-30 15:36:00,
2013-10-30 11:51:00,88.0,78.0,29.86,ENE,67,1.0,14.0,72,0.00,,,0.03,weatherlink.com 1.10,2013-10-30 15:51:00,
2013-10-30 12:06:00,90.4,78.0,29.86,SE,126,6.0,16.0,67,0.00,,,0.03,weatherlink.com 1.10,2013-10-30 16:06:00,
2013-10-30 12:21:00,90.4,79.0,29.84,East,79,8.0,11.0,69,0.00,,,0.03,weatherlink.com 1.10,2013-10-30 16:21:00,
2013-10-30 12:36:00,88.9,78.0,29.84,ESE,119,7.0,15.0,71,0.00,,,0.03,weatherlink.com 1.10,2013-10-30 16:36:00,
2013-10-30 12:51:00,84.6,78.0,29.83,East,101,1.0,8.0,80,0.03,,,0.06,weatherlink.com 1.10,2013-10-30 16:51:00,
2013-10-30 13:06:00,80.0,76.0,29.84,ESE,122,13.0,15.0,87,0.36,,,0.39,weatherlink.com 1.10,2013-10-30 17:06:00,
2013-10-30 13:21:00,78.5,76.0,29.84,SE,130,5.0,11.0,92,0.37,,,0.40,weatherlink.com 1.10,2013-10-30 17:21:00,
2013-10-30 13:36:00,78.4,76.0,29.83,East,84,3.0,9.0,93,0.37,,,0.40,weatherlink.com 1.10,2013-10-30 17:36:00,
2013-10-30 13:51:00,78.1,76.0,29.82,ESE,114,2.0,7.0,94,0.34,,,0.40,weatherlink.com 1.10,2013-10-30 17:51:00,
2013-10-30 14:06:00,78.6,77.0,29.81,East,91,3.0,5.0,94,0.01,,,0.40,weatherlink.com 1.10,2013-10-30 18:06:00,
2013-10-30 14:21:00,79.2,77.0,29.80,East,90,1.0,4.0,94,0.00,,,0.40,weatherlink.com 1.10,2013-10-30 18:21:00,
2013-10-30 14:36:00,79.8,78.0,29.80,East,83,1.0,6.0,94,0.00,,,0.40,weatherlink.com 1.10,2013-10-30 18:36:00,
2013-10-30 14:51:00,80.3,79.0,29.80,ENE,72,1.0,5.0,94,0.00,,,0.40,weatherlink.com 1.10,2013-10-30 18:51:00,
2013-10-30 15:06:00,80.2,78.0,29.79,NE,55,1.0,6.0,93,0.00,,,0.40,weatherlink.com 1.10,2013-10-30 19:06:00,
2013-10-30 15:22:00,80.2,77.0,29.80,ENE,64,4.0,11.0,90,0.05,,,0.45,weatherlink.com 1.10,2013-10-30 19:22:00,
2013-10-30 15:37:00,79.3,77.0,29.79,East,98,2.0,5.0,92,0.06,,,0.46,weatherlink.com 1.10,2013-10-30 19:37:00,
2013-10-30 15:52:00,78.5,76.0,29.79,East,96,1.0,6.0,92,0.06,,,0.46,weatherlink.com 1.10,2013-10-30 19:52:00,
2013-10-30 16:07:00,78.3,76.0,29.78,ESE,123,0.0,4.0,93,0.06,,,0.46,weatherlink.com 1.10,2013-10-30 20:07:00,
2013-10-30 16:22:00,78.6,77.0,29.77,ESE,122,1.0,2.0,94,0.01,,,0.46,weatherlink.com 1.10,2013-10-30 20:22:00,
2013-10-30 16:37:00,77.8,75.0,29.77,East,101,2.0,9.0,92,0.00,,,0.46,weatherlink.com 1.10,2013-10-30 20:37:00,
2013-10-30 16:52:00,77.3,75.0,29.77,ESE,119,1.0,7.0,93,0.00,,,0.46,weatherlink.com 1.10,2013-10-30 20:52:00,
2013-10-30 17:22:00,78.5,77.0,29.77,ENE,74,1.0,5.0,94,0.00,,,0.46,weatherlink.com 1.10,2013-10-30 21:22:00,
2013-10-30 17:37:00,78.8,77.0,29.77,East,87,1.0,4.0,94,0.00,,,0.46,weatherlink.com 1.10,2013-10-30 21:37:00,
2013-10-30 17:52:00,78.6,76.0,29.77,East,92,2.0,10.0,92,0.00,,,0.46,weatherlink.com 1.10,2013-10-30 21:52:00,
2013-10-30 18:22:00,78.6,76.0,29.78,ENE,76,2.0,5.0,92,0.00,,,0.46,weatherlink.com 1.10,2013-10-30 22:22:00,
2013-10-30 18:37:00,78.8,76.0,29.79,NE,39,5.0,5.0,92,0.00,,,0.46,weatherlink.com 1.10,2013-10-30 22:37:00,
2013-10-30 18:52:00,78.9,77.0,29.79,NE,41,1.0,10.0,92,0.00,,,0.46,weatherlink.com 1.10,2013-10-30 22:52:00,
2013-10-30 19:07:00,79.3,76.0,29.80,East,85,2.0,9.0,90,0.00,,,0.46,weatherlink.com 1.10,2013-10-30 23:07:00,
2013-10-30 19:22:00,79.5,76.0,29.81,ESE,105,2.0,13.0,88,0.00,,,0.46,weatherlink.com 1.10,2013-10-30 23:22:00,
2013-10-30 19:37:00,80.0,76.0,29.81,ENE,67,3.0,8.0,87,0.00,,,0.46,weatherlink.com 1.10,2013-10-30 23:37:00,
2013-10-30 19:52:00,80.1,76.0,29.82,NE,42,2.0,8.0,87,0.00,,,0.46,weatherlink.com 1.10,2013-10-30 23:52:00,
2013-10-30 20:07:00,79.9,75.0,29.82,East,97,2.0,10.0,86,0.00,,,0.46,weatherlink.com 1.10,2013-10-31 00:07:00,
2013-10-30 20:22:00,80.2,76.0,29.83,ENE,62,0.0,9.0,86,0.00,,,0.46,weatherlink.com 1.10,2013-10-31 00:22:00,
2013-10-30 20:37:00,80.3,76.0,29.84,ENE,63,5.0,9.0,85,0.00,,,0.46,weatherlink.com 1.10,2013-10-31 00:37:00,
2013-10-30 20:52:00,80.3,75.0,29.84,ENE,61,5.0,10.0,84,0.00,,,0.46,weatherlink.com 1.10,2013-10-31 00:52:00,
2013-10-30 21:07:00,80.3,75.0,29.85,East,93,5.0,9.0,84,0.00,,,0.46,weatherlink.com 1.10,2013-10-31 01:07:00,
2013-10-30 21:22:00,80.3,75.0,29.84,ESE,107,4.0,9.0,84,0.00,,,0.46,weatherlink.com 1.10,2013-10-31 01:22:00,
2013-10-30 21:37:00,80.3,76.0,29.85,ENE,59,5.0,9.0,85,0.00,,,0.46,weatherlink.com 1.10,2013-10-31 01:37:00,
2013-10-30 21:52:00,80.4,76.0,29.84,East,101,2.0,11.0,86,0.00,,,0.46,weatherlink.com 1.10,2013-10-31 01:52:00,
2013-10-30 22:07:00,80.2,76.0,29.84,ENE,71,0.0,8.0,87,0.00,,,0.46,weatherlink.com 1.10,2013-10-31 02:07:00,
2013-10-30 22:22:00,79.7,75.0,29.84,NE,55,0.0,6.0,86,0.00,,,0.46,weatherlink.com 1.10,2013-10-31 02:22:00,
2013-10-30 22:37:00,79.4,75.0,29.84,ENE,76,1.0,7.0,85,0.00,,,0.46,weatherlink.com 1.10,2013-10-31 02:37:00,
2013-10-30 22:52:00,79.6,75.0,29.84,ESE,104,3.0,7.0,85,0.00,,,0.46,weatherlink.com 1.10,2013-10-31 02:52:00,
2013-10-30 23:07:00,79.7,75.0,29.84,East,91,2.0,8.0,86,0.00,,,0.46,weatherlink.com 1.10,2013-10-31 03:07:00,
2013-10-30 23:22:00,79.7,75.0,29.84,ENE,68,3.0,8.0,85,0.00,,,0.46,weatherlink.com 1.10,2013-10-31 03:22:00,
2013-10-30 23:37:00,80.1,75.0,29.84,ENE,77,2.0,5.0,84,0.00,,,0.46,weatherlink.com 1.10,2013-10-31 03:37:00,
2013-10-30 23:52:00,80.1,75.0,29.84,ENE,64,1.0,9.0,84,0.00,,,0.46,weatherlink.com 1.10,2013-10-31 03:52:00,